Time;durP1;ratioP1;P1;durP2;ratioP2;P2;SDS_P1;SDS_P2;PMS_P1;PMS_P2;Temp;Humidity;BMP_temperature;BMP_pressure;BME280_temperature;BME280_humidity;BME280_pressure;Samples;Min_cycle;Max_cycle;Signal;HPM_P1;HPM_P2
2022/10/08 00:00:58;;;;;;;3.45;1.00;;;19.90;65.10;;;;;;4992426;28;20065;-68
2022/10/08 00:03:25;;;;;;;3.63;0.98;;;19.90;65.00;;;;;;4975727;28;20046;-68
2022/10/08 00:06:09;;;;;;;3.28;0.93;;;19.90;65.00;;;;;;5008134;28;20046;-68
2022/10/08 00:08:36;;;;;;;2.90;1.10;;;19.90;65.00;;;;;;4991070;28;20052;-68
2022/10/08 00:11:09;;;;;;;3.83;1.10;;;19.90;65.00;;;;;;4975532;28;20038;-68
2022/10/08 00:13:39;;;;;;;3.42;1.00;;;19.90;65.00;;;;;;4993218;28;20042;-68
2022/10/08 00:16:25;;;;;;;4.35;1.00;;;19.90;65.00;;;;;;4992217;28;20109;-68
2022/10/08 00:18:51;;;;;;;3.50;1.05;;;19.90;65.50;;;;;;4992958;28;20046;-68
2022/10/08 00:21:25;;;;;;;5.45;0.90;;;19.90;65.00;;;;;;4992535;28;20053;-68
2022/10/08 00:23:51;;;;;;;6.15;1.10;;;19.90;65.00;;;;;;4993116;28;20048;-69
2022/10/08 00:26:19;;;;;;;3.30;0.80;;;19.80;64.90;;;;;;4975280;28;20042;-68
2022/10/08 00:28:45;;;;;;;4.55;0.98;;;19.80;64.90;;;;;;4992282;28;20100;-68
2022/10/08 00:31:16;;;;;;;3.22;1.00;;;19.90;65.00;;;;;;4992576;28;20398;-68
2022/10/08 00:33:42;;;;;;;3.47;1.10;;;19.80;65.00;;;;;;4993350;28;20100;-68
2022/10/08 00:36:10;;;;;;;4.20;1.17;;;19.80;65.00;;;;;;4992624;28;20042;-68
2022/10/08 00:38:36;;;;;;;3.83;1.00;;;19.80;64.90;;;;;;5012209;28;20078;-68
2022/10/08 00:41:04;;;;;;;5.30;1.08;;;19.80;64.90;;;;;;4996865;28;20089;-68
2022/10/08 00:43:56;;;;;;;4.40;1.10;;;19.80;64.90;;;;;;4996387;28;20138;-69
2022/10/08 00:46:33;;;;;;;4.60;1.40;;;19.80;64.90;;;;;;4976519;28;20475;-69
2022/10/08 00:49:10;;;;;;;3.83;1.20;;;19.80;64.90;;;;;;4996762;28;20066;-68
2022/10/08 00:51:36;;;;;;;4.93;1.30;;;19.80;64.80;;;;;;4994675;28;20460;-68
2022/10/08 00:54:02;;;;;;;5.00;0.98;;;19.80;64.90;;;;;;4995137;28;20099;-68
2022/10/08 00:56:30;;;;;;;3.13;0.75;;;19.80;64.90;;;;;;4995874;28;20049;-68
2022/10/08 00:58:55;;;;;;;5.00;1.23;;;19.80;64.90;;;;;;4996597;28;20050;-68
2022/10/08 01:01:21;;;;;;;3.45;0.80;;;19.80;64.90;;;;;;4978871;28;20042;-68
2022/10/08 01:03:47;;;;;;;4.20;0.90;;;19.80;65.00;;;;;;4978451;28;20161;-68
2022/10/08 01:06:25;;;;;;;4.55;1.08;;;19.70;64.80;;;;;;4978537;28;20117;-68
2022/10/08 01:09:21;;;;;;;3.25;0.75;;;19.80;64.90;;;;;;4996308;28;20077;-68
2022/10/08 01:12:07;;;;;;;5.40;1.17;;;19.70;64.80;;;;;;4995738;28;20133;-68
2022/10/08 01:14:55;;;;;;;3.47;0.88;;;19.80;65.00;;;;;;4981637;28;20046;-68
2022/10/08 01:17:36;;;;;;;3.70;1.00;;;19.80;64.90;;;;;;4962161;28;20053;-68
2022/10/08 01:20:37;;;;;;;1.50;0.60;;;19.70;64.80;;;;;;4979523;28;20124;-68
2022/10/08 01:23:35;;;;;;;3.88;0.80;;;19.70;64.90;;;;;;4981640;28;20073;-68
2022/10/08 01:26:22;;;;;;;4.90;1.05;;;19.70;64.80;;;;;;4978183;28;20498;-68
2022/10/08 01:29:07;;;;;;;3.03;0.95;;;19.70;64.90;;;;;;4995917;28;20494;-68
2022/10/08 01:31:36;;;;;;;3.75;1.27;;;19.70;64.80;;;;;;4979699;28;20097;-68
2022/10/08 01:34:10;;;;;;;2.75;0.70;;;19.70;64.90;;;;;;4978443;28;20064;-68
2022/10/08 01:36:39;;;;;;;3.67;1.00;;;19.70;64.90;;;;;;4978993;28;20533;-68
2022/10/08 01:39:08;;;;;;;3.53;1.00;;;19.70;64.90;;;;;;4978209;28;20051;-68
2022/10/08 01:41:33;;;;;;;;;;;19.70;65.00;;;;;;4978717;28;20038;-68
2022/10/08 01:44:12;;;;;;;4.55;0.90;;;19.70;64.90;;;;;;4995770;28;19929;-68
2022/10/08 01:46:39;;;;;;;3.38;1.05;;;19.70;65.00;;;;;;4978603;28;20056;-68
2022/10/08 01:49:07;;;;;;;2.05;0.63;;;19.70;65.10;;;;;;4978611;28;20137;-68
2022/10/08 01:51:35;;;;;;;3.60;0.90;;;19.70;65.00;;;;;;4979930;28;20561;-68
2022/10/08 01:54:01;;;;;;;3.08;0.90;;;19.70;65.00;;;;;;4961150;28;20100;-68
2022/10/08 01:56:27;;;;;;;4.05;0.77;;;19.70;65.00;;;;;;4978211;28;20058;-68
2022/10/08 01:59:06;;;;;;;4.10;0.95;;;19.70;65.10;;;;;;4961936;28;20050;-68
2022/10/08 02:01:58;;;;;;;2.67;0.65;;;19.70;65.10;;;;;;4977660;28;20141;-69
2022/10/08 02:04:32;;;;;;;2.60;0.70;;;19.70;65.10;;;;;;4984228;28;20050;-68
2022/10/08 02:06:59;;;;;;;4.55;1.10;;;19.70;65.10;;;;;;4977626;28;20491;-68
2022/10/08 02:09:28;;;;;;;3.38;0.80;;;19.70;65.10;;;;;;4961778;28;20046;-68
2022/10/08 02:11:53;;;;;;;2.63;0.80;;;19.70;65.10;;;;;;4977532;28;20453;-70
2022/10/08 02:14:20;;;;;;;4.95;0.80;;;19.70;65.10;;;;;;4994513;28;20497;-69
2022/10/08 02:17:10;;;;;;;4.05;1.20;;;19.70;65.10;;;;;;4993933;28;20081;-69
2022/10/08 02:19:55;;;;;;;3.05;0.73;;;19.60;65.10;;;;;;4994707;28;20046;-68
2022/10/08 02:22:24;;;;;;;3.72;1.10;;;19.70;65.10;;;;;;4994374;28;20042;-68
2022/10/08 02:25:06;;;;;;;3.00;0.80;;;19.60;65.10;;;;;;4995153;28;20109;-68
2022/10/08 02:27:50;;;;;;;3.30;0.60;;;19.70;65.20;;;;;;4979372;28;20125;-68
2022/10/08 02:30:16;;;;;;;2.38;0.73;;;19.60;65.20;;;;;;4962082;28;20057;-68
2022/10/08 02:32:58;;;;;;;3.13;1.00;;;19.60;65.20;;;;;;4977293;28;20046;-68
2022/10/08 02:35:38;;;;;;;3.20;0.70;;;19.60;65.10;;;;;;4976457;28;20042;-68
2022/10/08 02:38:21;;;;;;;2.35;1.00;;;19.60;65.20;;;;;;4979298;28;20502;-68
2022/10/08 02:40:49;;;;;;;2.00;0.77;;;19.70;65.20;;;;;;4978887;28;20038;-68
2022/10/08 02:43:20;;;;;;;3.30;0.80;;;19.60;65.20;;;;;;4976157;28;20038;-68
2022/10/08 02:45:54;;;;;;;2.17;0.70;;;19.60;65.30;;;;;;4977798;28;20077;-68
2022/10/08 02:48:24;;;;;;;2.88;0.80;;;19.60;65.30;;;;;;4976990;28;20502;-68
2022/10/08 02:50:50;;;;;;;2.90;0.70;;;19.60;65.20;;;;;;4960735;28;20125;-68
2022/10/08 02:53:17;;;;;;;2.22;0.90;;;19.60;65.30;;;;;;4960783;28;20129;-68
2022/10/08 02:56:01;;;;;;;2.67;0.90;;;19.60;65.30;;;;;;4977572;28;20042;-68
2022/10/08 02:58:26;;;;;;;2.67;0.75;;;19.60;65.20;;;;;;4977083;28;20050;-68
2022/10/08 03:01:06;;;;;;;3.65;0.80;;;19.60;65.20;;;;;;4993952;28;20045;-68
2022/10/08 03:03:33;;;;;;;3.38;0.95;;;19.60;65.30;;;;;;4961629;28;20495;-68
2022/10/08 03:06:01;;;;;;;4.10;0.93;;;19.60;65.30;;;;;;4977202;28;20047;-68
2022/10/08 03:08:27;;;;;;;3.33;0.70;;;19.60;65.30;;;;;;4976647;28;20506;-68
2022/10/08 03:10:52;;;;;;;3.08;0.70;;;19.60;65.30;;;;;;4960121;28;20042;-68
2022/10/08 03:13:18;;;;;;;3.33;1.45;;;19.60;65.30;;;;;;4976317;28;20098;-68
2022/10/08 03:15:44;;;;;;;4.40;0.98;;;19.60;65.30;;;;;;4976915;28;20046;-68
2022/10/08 03:18:10;;;;;;;2.38;0.80;;;19.70;65.40;;;;;;4976119;28;20054;-68
2022/10/08 03:20:41;;;;;;;2.88;0.90;;;19.60;65.30;;;;;;4960378;28;20042;-68
2022/10/08 03:23:06;;;;;;;2.88;0.80;;;19.60;65.30;;;;;;4976548;28;20061;-68
2022/10/08 03:25:32;;;;;;;3.10;0.90;;;19.70;65.40;;;;;;4975963;28;20046;-68
2022/10/08 03:27:57;;;;;;;1.83;0.70;;;19.70;65.40;;;;;;4993655;28;20534;-68
2022/10/08 03:30:23;;;;;;;2.50;0.70;;;19.70;65.40;;;;;;4993634;28;20459;-68
2022/10/08 03:32:48;;;;;;;1.52;0.63;;;19.70;65.40;;;;;;4975522;28;20410;-68
2022/10/08 03:35:14;;;;;;;2.90;0.95;;;19.70;65.40;;;;;;4976030;28;20097;-68
2022/10/08 03:37:39;;;;;;;4.57;0.77;;;19.70;65.40;;;;;;4993793;28;20038;-68
2022/10/08 03:40:06;;;;;;;1.95;0.68;;;19.70;65.40;;;;;;4993085;28;20042;-68
2022/10/08 03:42:31;;;;;;;3.08;0.80;;;19.80;65.40;;;;;;4975686;28;20043;-68
2022/10/08 03:44:57;;;;;;;2.20;0.60;;;19.80;65.40;;;;;;4976142;28;20045;-68
2022/10/08 03:47:22;;;;;;;2.17;0.60;;;19.80;65.40;;;;;;4992431;28;20101;-68
2022/10/08 03:49:48;;;;;;;3.38;0.60;;;19.80;65.40;;;;;;4993580;28;20073;-67
2022/10/08 03:52:14;;;;;;;3.10;0.82;;;19.80;65.40;;;;;;4993332;28;20046;-67
2022/10/08 03:54:39;;;;;;;4.75;0.98;;;19.80;65.40;;;;;;4975194;28;20034;-67
2022/10/08 03:57:05;;;;;;;3.95;0.80;;;19.80;65.40;;;;;;4992967;28;20042;-68
2022/10/08 03:59:30;;;;;;;2.35;0.75;;;19.80;65.40;;;;;;4992261;28;20046;-68
2022/10/08 04:01:56;;;;;;;1.58;0.60;;;19.80;65.40;;;;;;5008534;28;20133;-67
2022/10/08 04:04:21;;;;;;;2.95;0.70;;;19.80;65.40;;;;;;4992069;28;20129;-68
2022/10/08 04:06:47;;;;;;;2.47;0.70;;;19.90;65.40;;;;;;4974561;28;20137;-68
2022/10/08 04:09:12;;;;;;;2.78;0.85;;;19.90;65.40;;;;;;4992745;28;20402;-68
2022/10/08 04:11:38;;;;;;;1.63;0.55;;;19.90;65.40;;;;;;4993160;28;20394;-67
2022/10/08 04:14:03;;;;;;;1.70;0.50;;;19.90;65.50;;;;;;4974814;28;20038;-68
2022/10/08 04:16:29;;;;;;;2.33;1.50;;;19.90;65.40;;;;;;4975190;28;20050;-67
2022/10/08 04:18:54;;;;;;;2.35;0.63;;;19.90;65.40;;;;;;4993119;28;20046;-69
2022/10/08 04:21:20;;;;;;;1.67;0.45;;;19.90;65.40;;;;;;4992022;28;20049;-68
2022/10/08 04:23:45;;;;;;;1.90;0.60;;;20.00;65.50;;;;;;4993371;28;20385;-68
2022/10/08 04:26:12;;;;;;;2.78;0.80;;;20.00;65.50;;;;;;4992899;28;20510;-68
2022/10/08 04:28:38;;;;;;;1.33;0.60;;;20.00;65.50;;;;;;4992055;28;20050;-68
2022/10/08 04:31:25;;;;;;;1.65;0.50;;;20.00;65.40;;;;;;4993036;28;20501;-68
2022/10/08 04:33:51;;;;;;;2.42;0.65;;;20.00;65.50;;;;;;4992554;28;20517;-68
2022/10/08 04:36:18;;;;;;;1.98;0.63;;;20.00;65.40;;;;;;4974471;28;20054;-68
2022/10/08 04:38:44;;;;;;;1.50;0.50;;;20.00;65.40;;;;;;4993068;28;20042;-68
2022/10/08 04:41:17;;;;;;;2.78;0.60;;;20.00;65.40;;;;;;4992940;28;20053;-68
2022/10/08 04:43:43;;;;;;;1.58;0.57;;;20.00;65.40;;;;;;4992149;28;20061;-68
2022/10/08 04:46:10;;;;;;;1.60;0.50;;;20.00;65.50;;;;;;4992729;28;20050;-68
2022/10/08 04:48:36;;;;;;;2.42;0.60;;;20.10;65.50;;;;;;4991874;28;20066;-68
2022/10/08 04:51:03;;;;;;;2.55;0.60;;;20.10;65.50;;;;;;5007581;28;20494;-68
2022/10/08 04:53:28;;;;;;;2.13;0.70;;;20.10;65.50;;;;;;4992639;28;20050;-68
2022/10/08 04:55:54;;;;;;;2.08;0.60;;;20.10;65.50;;;;;;4992139;28;20434;-68
2022/10/08 04:58:20;;;;;;;1.98;0.65;;;20.10;65.50;;;;;;5007722;28;20077;-66
2022/10/08 05:00:46;;;;;;;2.30;0.68;;;20.10;65.50;;;;;;4992744;28;20051;-66
2022/10/08 05:03:12;;;;;;;2.17;0.60;;;20.10;65.50;;;;;;4990610;28;20105;-66
2022/10/08 05:05:39;;;;;;;1.60;0.60;;;20.10;65.50;;;;;;4975046;28;20145;-66
2022/10/08 05:08:04;;;;;;;1.27;0.60;;;20.10;65.50;;;;;;4992977;28;20042;-66
2022/10/08 05:10:30;;;;;;;1.60;0.63;;;20.10;65.40;;;;;;4991718;28;20046;-66
2022/10/08 05:12:55;;;;;;;1.80;0.47;;;20.10;65.50;;;;;;4992562;28;20065;-66
2022/10/08 05:15:21;;;;;;;1.88;0.60;;;20.20;65.50;;;;;;4992264;28;20049;-66
2022/10/08 05:17:46;;;;;;;1.30;0.60;;;20.10;65.50;;;;;;4992006;28;20049;-66
2022/10/08 05:20:12;;;;;;;1.88;0.57;;;20.10;65.50;;;;;;4992197;28;20035;-66
2022/10/08 05:22:37;;;;;;;2.35;0.70;;;20.20;65.60;;;;;;4994088;28;20085;-66
2022/10/08 05:25:03;;;;;;;2.47;0.60;;;20.20;65.50;;;;;;4995468;28;20047;-66
2022/10/08 05:27:30;;;;;;;2.78;0.60;;;20.20;65.50;;;;;;4995583;28;20050;-66
2022/10/08 05:29:55;;;;;;;1.17;0.57;;;20.20;65.70;;;;;;4996360;28;20042;-66
2022/10/08 05:32:21;;;;;;;2.05;0.40;;;20.10;65.50;;;;;;4994781;28;20517;-66
2022/10/08 05:34:46;;;;;;;1.95;0.50;;;20.20;65.60;;;;;;4995504;28;20046;-66
2022/10/08 05:37:12;;;;;;;2.05;0.60;;;20.10;65.50;;;;;;4995685;28;20599;-66
2022/10/08 05:39:37;;;;;;;0.85;0.50;;;20.20;65.60;;;;;;4995262;28;20039;-66
2022/10/08 05:42:03;;;;;;;1.65;0.70;;;20.20;65.60;;;;;;4995702;28;20049;-66
2022/10/08 05:44:28;;;;;;;2.80;0.70;;;20.20;65.60;;;;;;4995529;28;20074;-66
2022/10/08 05:46:54;;;;;;;1.23;0.40;;;20.20;65.60;;;;;;5009859;28;20046;-66
2022/10/08 05:49:21;;;;;;;3.30;0.60;;;20.20;65.60;;;;;;4977829;28;20054;-66
2022/10/08 05:51:46;;;;;;;2.63;0.40;;;20.20;65.60;;;;;;4995756;28;20050;-66
2022/10/08 05:54:12;;;;;;;1.85;0.65;;;20.10;65.60;;;;;;4994783;28;20101;-66
2022/10/08 05:56:38;;;;;;;2.67;0.60;;;20.20;65.60;;;;;;4995359;28;20046;-66
2022/10/08 05:59:03;;;;;;;1.67;0.55;;;20.10;65.60;;;;;;4994690;28;20046;-66
2022/10/08 06:01:30;;;;;;;2.35;0.43;;;20.20;65.70;;;;;;4995369;28;20051;-67
2022/10/08 06:03:57;;;;;;;1.63;0.60;;;20.10;65.60;;;;;;4995399;28;20046;-66
2022/10/08 06:06:23;;;;;;;1.67;0.60;;;20.20;65.70;;;;;;4976760;28;20405;-66
2022/10/08 06:09:07;;;;;;;1.98;0.50;;;20.20;65.70;;;;;;4995329;28;20137;-66
2022/10/08 06:11:33;;;;;;;6.70;0.77;;;20.10;65.70;;;;;;4995361;28;20049;-65
2022/10/08 06:13:59;;;;;;;3.10;0.60;;;20.10;65.70;;;;;;4994198;28;20061;-65
2022/10/08 06:16:25;;;;;;;3.95;0.60;;;20.20;65.70;;;;;;4977726;28;20046;-66
2022/10/08 06:18:50;;;;;;;1.45;0.65;;;20.10;65.80;;;;;;4994757;28;20057;-65
2022/10/08 06:21:18;;;;;;;3.00;0.52;;;20.10;66.00;;;;;;4993704;28;20050;-65
2022/10/08 06:23:45;;;;;;;5.13;0.95;;;20.10;66.10;;;;;;4995196;28;20050;-65
2022/10/08 06:26:11;;;;;;;4.20;0.70;;;20.20;66.20;;;;;;4994907;28;20046;-67
2022/10/08 06:28:37;;;;;;;3.63;0.80;;;20.20;66.30;;;;;;4994163;28;20103;-67
2022/10/08 06:31:03;;;;;;;4.22;0.73;;;20.20;66.30;;;;;;4995085;28;20081;-66
2022/10/08 06:33:28;;;;;;;3.50;0.80;;;20.20;66.30;;;;;;4992313;28;20062;-66
2022/10/08 06:35:54;;;;;;;2.75;0.70;;;20.20;66.30;;;;;;4993007;28;20452;-65
2022/10/08 06:38:20;;;;;;;2.40;0.80;;;20.20;66.40;;;;;;4977158;28;20047;-66
2022/10/08 06:40:46;;;;;;;2.72;0.70;;;20.20;66.40;;;;;;4994718;28;20049;-65
2022/10/08 06:43:15;;;;;;;2.10;0.63;;;20.20;66.50;;;;;;4993765;28;20046;-65
2022/10/08 06:45:41;;;;;;;1.55;0.45;;;20.20;66.60;;;;;;4994343;28;20557;-66
2022/10/08 06:48:07;;;;;;;3.28;0.60;;;20.20;66.60;;;;;;4975897;28;20084;-66
2022/10/08 06:50:33;;;;;;;3.70;0.82;;;20.20;66.70;;;;;;4994040;28;20053;-65
2022/10/08 06:52:58;;;;;;;1.45;0.55;;;20.20;67.40;;;;;;4994660;28;20088;-65
2022/10/08 06:55:24;;;;;;;2.45;0.70;;;20.20;66.70;;;;;;4993376;28;20490;-65
2022/10/08 06:57:50;;;;;;;2.28;0.40;;;20.20;66.80;;;;;;4976638;28;20050;-65
2022/10/08 07:00:15;;;;;;;4.07;0.63;;;20.30;66.90;;;;;;4994309;28;20049;-64
2022/10/08 07:02:41;;;;;;;2.75;0.50;;;20.30;66.90;;;;;;4993640;28;20050;-65
2022/10/08 07:05:07;;;;;;;3.53;0.70;;;20.30;66.90;;;;;;4993883;28;20561;-65
2022/10/08 07:07:32;;;;;;;2.50;0.70;;;20.30;66.90;;;;;;4976826;28;20069;-65
2022/10/08 07:09:58;;;;;;;3.42;0.70;;;20.30;66.90;;;;;;4993644;28;20394;-65
2022/10/08 07:12:23;;;;;;;1.40;0.50;;;20.30;67.00;;;;;;4993903;28;20038;-65
2022/10/08 07:14:49;;;;;;;2.53;0.77;;;20.30;67.10;;;;;;4976610;28;20157;-67
2022/10/08 07:17:14;;;;;;;3.08;0.60;;;20.30;67.10;;;;;;4992584;28;20130;-67
2022/10/08 07:19:40;;;;;;;2.90;0.73;;;20.30;67.10;;;;;;4993686;28;20042;-66
2022/10/08 07:22:05;;;;;;;2.03;0.50;;;20.30;67.10;;;;;;4993806;28;20042;-65
2022/10/08 07:24:31;;;;;;;2.90;0.60;;;20.30;67.00;;;;;;4993061;28;20120;-65
2022/10/08 07:26:56;;;;;;;2.53;0.70;;;20.30;67.00;;;;;;4993762;28;20146;-65
2022/10/08 07:29:23;;;;;;;2.92;0.50;;;20.30;67.10;;;;;;4993500;28;20046;-64
2022/10/08 07:31:49;;;;;;;2.10;0.63;;;20.30;67.10;;;;;;4993237;28;20081;-64
2022/10/08 07:34:14;;;;;;;3.10;0.70;;;20.30;67.20;;;;;;4993545;28;20042;-63
2022/10/08 07:36:40;;;;;;;3.78;0.80;;;20.30;67.20;;;;;;4976003;28;20446;-63
2022/10/08 07:39:17;;;;;;;2.97;0.70;;;20.40;67.30;;;;;;4992910;28;20360;-63
2022/10/08 07:41:43;;;;;;;2.42;0.57;;;20.40;67.40;;;;;;4993643;28;20486;-63
2022/10/08 07:44:09;;;;;;;2.42;0.60;;;20.40;67.40;;;;;;4992715;28;20069;-63
2022/10/08 07:46:35;;;;;;;4.55;0.70;;;20.40;67.40;;;;;;4975245;28;20048;-63
2022/10/08 07:49:01;;;;;;;1.95;0.57;;;20.40;67.40;;;;;;4993305;28;20050;-62
2022/10/08 07:51:31;;;;;;;2.22;0.70;;;20.40;67.40;;;;;;4992433;28;20061;-63
2022/10/08 07:54:00;;;;;;;1.50;0.65;;;20.50;67.50;;;;;;4993346;28;20499;-63
2022/10/08 07:56:26;;;;;;;1.20;0.43;;;20.40;67.40;;;;;;4992840;28;20407;-63
2022/10/08 07:58:51;;;;;;;5.35;0.70;;;20.40;67.40;;;;;;4992536;28;20486;-63
2022/10/08 08:01:20;;;;;;;2.75;0.70;;;20.40;67.30;;;;;;4993281;28;20100;-62
2022/10/08 08:03:50;;;;;;;2.60;0.90;;;20.50;67.40;;;;;;4993496;28;20050;-63
2022/10/08 08:06:15;;;;;;;2.33;0.63;;;20.50;67.30;;;;;;4992288;28;20046;-64
2022/10/08 08:08:42;;;;;;;2.28;0.60;;;20.50;67.30;;;;;;4975517;28;20042;-63
2022/10/08 08:11:09;;;;;;;3.40;0.70;;;20.50;67.30;;;;;;4992713;28;20532;-63
2022/10/08 08:13:37;;;;;;;3.50;0.75;;;20.50;67.30;;;;;;4992305;28;20081;-65
2022/10/08 08:16:10;;;;;;;2.90;0.50;;;20.50;67.40;;;;;;4992885;28;20387;-64
2022/10/08 08:18:37;;;;;;;4.43;0.60;;;20.50;67.40;;;;;;4992982;28;20313;-63
2022/10/08 08:21:07;;;;;;;3.13;0.63;;;20.50;67.40;;;;;;4992261;28;20057;-64
2022/10/08 08:23:37;;;;;;;2.33;0.60;;;20.50;67.40;;;;;;4993044;28;20125;-63
2022/10/08 08:26:04;;;;;;;3.63;0.65;;;20.60;67.50;;;;;;4993146;28;20048;-64
2022/10/08 08:28:30;;;;;;;1.73;0.55;;;20.60;67.50;;;;;;4991941;28;20096;-63
2022/10/08 08:31:16;;;;;;;2.38;0.40;;;20.60;67.50;;;;;;4974217;28;20031;-66
2022/10/08 08:33:42;;;;;;;3.45;0.50;;;20.70;67.60;;;;;;4972452;28;20054;-65
2022/10/08 08:36:08;;;;;;;4.93;0.73;;;20.60;67.40;;;;;;4973260;28;20038;-66
2022/10/08 08:38:35;;;;;;;4.00;0.70;;;20.70;67.40;;;;;;4973835;28;20039;-65
2022/10/08 08:41:25;;;;;;;4.03;0.70;;;20.70;67.30;;;;;;4970258;28;20042;-66
2022/10/08 08:43:58;;;;;;;4.03;0.70;;;20.70;67.30;;;;;;4973431;28;20042;-65
2022/10/08 08:46:23;;;;;;;3.20;0.50;;;20.80;67.30;;;;;;4971817;28;20105;-64
2022/10/08 08:48:49;;;;;;;2.95;0.60;;;20.80;67.20;;;;;;4971298;28;20061;-64
2022/10/08 08:51:14;;;;;;;3.22;0.70;;;20.80;67.20;;;;;;4971995;28;20097;-64
2022/10/08 08:53:40;;;;;;;1.20;0.43;;;20.90;67.20;;;;;;4972546;28;20039;-64
2022/10/08 08:56:06;;;;;;;3.58;0.68;;;20.80;67.10;;;;;;4971257;28;20042;-64
2022/10/08 08:58:36;;;;;;;1.95;0.52;;;20.90;67.00;;;;;;4975008;28;20042;-64
2022/10/08 09:01:08;;;;;;;1.20;0.50;;;20.90;67.00;;;;;;4975916;28;20109;-64
2022/10/08 09:03:41;;;;;;;3.70;0.82;;;20.90;66.90;;;;;;4976555;28;20054;-65
2022/10/08 09:06:10;;;;;;;3.20;0.60;;;20.90;66.80;;;;;;4960208;28;20054;-65
2022/10/08 09:08:58;;;;;;;3.30;0.90;;;20.90;66.80;;;;;;4976101;28;20093;-65
2022/10/08 09:11:24;;;;;;;;;;;21.00;66.70;;;;;;4978024;28;20038;-66
2022/10/08 09:13:55;;;;;;;2.95;0.73;;;20.90;66.70;;;;;;4996120;28;19932;-65
2022/10/08 09:16:21;;;;;;;2.65;0.52;;;20.90;66.60;;;;;;4978732;28;20077;-66
2022/10/08 09:18:48;;;;;;;3.15;0.70;;;20.90;66.50;;;;;;4996456;28;20486;-64
2022/10/08 09:21:14;;;;;;;5.38;0.88;;;20.90;66.50;;;;;;4996125;28;20046;-64
2022/10/08 09:23:39;;;;;;;5.90;0.80;;;20.90;66.50;;;;;;4995666;28;20058;-64
2022/10/08 09:26:30;;;;;;;5.88;0.65;;;20.90;66.50;;;;;;4995849;28;20117;-64
2022/10/08 09:28:57;;;;;;;4.60;0.70;;;20.90;66.60;;;;;;4996197;28;20077;-65
2022/10/08 09:31:26;;;;;;;3.80;0.75;;;20.90;66.70;;;;;;4995001;28;20372;-65
2022/10/08 09:34:10;;;;;;;4.82;0.70;;;20.90;66.60;;;;;;4996311;28;20082;-65
2022/10/08 09:36:43;;;;;;;7.93;1.20;;;20.90;66.50;;;;;;4978383;28;20490;-66
2022/10/08 09:39:25;;;;;;;4.57;0.70;;;21.00;66.60;;;;;;4978428;28;20372;-71
2022/10/08 09:42:06;;;;;;;6.43;0.80;;;20.90;66.40;;;;;;4979066;28;20054;-64
2022/10/08 09:44:43;;;;;;;9.63;1.75;;;20.90;66.50;;;;;;4994801;28;20042;-64
2022/10/08 09:47:13;;;;;;;10.15;1.90;;;20.90;66.50;;;;;;4995287;28;20042;-66
2022/10/08 09:49:39;;;;;;;6.57;1.77;;;20.90;66.60;;;;;;4977310;28;20491;-65
2022/10/08 09:52:10;;;;;;;8.32;1.33;;;20.90;66.60;;;;;;4977000;28;20053;-65
2022/10/08 09:54:40;;;;;;;8.10;1.88;;;20.90;67.20;;;;;;4977775;28;20061;-65
2022/10/08 09:57:06;;;;;;;7.82;2.30;;;20.80;66.60;;;;;;4994615;28;20042;-66
2022/10/08 09:59:36;;;;;;;15.20;2.70;;;20.90;66.60;;;;;;4994644;28;20046;-65
2022/10/08 10:02:01;;;;;;;8.93;2.10;;;20.90;66.60;;;;;;4988617;28;20043;-67
2022/10/08 10:04:35;;;;;;;9.23;2.15;;;20.80;66.50;;;;;;4974516;28;20039;-67
2022/10/08 10:07:00;;;;;;;10.38;2.33;;;20.90;66.50;;;;;;4974968;28;20058;-67
2022/10/08 10:09:38;;;;;;;9.63;2.20;;;20.80;66.40;;;;;;4974338;28;20223;-66
2022/10/08 10:12:25;;;;;;;15.20;2.13;;;20.90;66.40;;;;;;4975791;28;20505;-66
2022/10/08 10:14:55;;;;;;;8.90;2.37;;;20.90;66.40;;;;;;4958545;28;20051;-66
2022/10/08 10:17:56;;;;;;;10.50;2.22;;;20.90;66.40;;;;;;4974198;28;20310;-67
2022/10/08 10:20:34;;;;;;;10.80;2.40;;;20.90;66.30;;;;;;4973661;28;20524;-66
2022/10/08 10:23:12;;;;;;;8.75;2.10;;;20.90;66.30;;;;;;4974679;28;20049;-67
2022/10/08 10:25:44;;;;;;;8.10;1.95;;;20.90;66.10;;;;;;4974850;28;20109;-67
2022/10/08 10:28:21;;;;;;;8.23;1.65;;;20.90;66.10;;;;;;4973300;28;20050;-67
2022/10/08 10:31:00;;;;;;;9.05;2.17;;;20.90;66.20;;;;;;4974210;28;20069;-67
2022/10/08 10:33:38;;;;;;;8.13;2.00;;;20.90;66.20;;;;;;4973527;28;20047;-71
2022/10/08 10:36:06;;;;;;;8.35;1.83;;;20.90;66.10;;;;;;4974288;28;20122;-65
2022/10/08 10:38:33;;;;;;;7.38;1.70;;;20.90;66.10;;;;;;4993032;28;20050;-66
2022/10/08 10:41:26;;;;;;;9.00;2.20;;;20.80;66.00;;;;;;4976548;28;20490;-64
2022/10/08 10:44:19;;;;;;;5.95;1.80;;;20.80;65.90;;;;;;4961202;28;20052;-66
2022/10/08 10:46:45;;;;;;;9.13;1.85;;;20.80;65.90;;;;;;4958820;28;20514;-64
2022/10/08 10:49:13;;;;;;;6.93;1.70;;;20.70;65.80;;;;;;4976223;28;20157;-64
2022/10/08 10:51:48;;;;;;;9.80;2.03;;;20.70;65.80;;;;;;4976769;28;20046;-65
2022/10/08 10:54:27;;;;;;;8.95;1.92;;;20.70;65.70;;;;;;4994365;28;20054;-65
2022/10/08 10:56:59;;;;;;;10.40;2.33;;;20.70;65.70;;;;;;4977980;28;20121;-65
2022/10/08 10:59:36;;;;;;;7.78;1.42;;;20.70;65.80;;;;;;4961104;28;20108;-65
2022/10/08 11:02:14;;;;;;;8.13;2.10;;;20.70;65.70;;;;;;4977043;28;20132;-66
2022/10/08 11:04:50;;;;;;;6.70;1.35;;;20.70;65.80;;;;;;4977476;28;20065;-65
2022/10/08 11:07:36;;;;;;;9.10;1.90;;;20.70;65.80;;;;;;4977592;28;20549;-65
2022/10/08 11:10:28;;;;;;;9.23;2.13;;;20.60;65.80;;;;;;4976307;28;20058;-65
2022/10/08 11:13:16;;;;;;;5.57;1.25;;;20.60;65.80;;;;;;4980165;28;20057;-65
2022/10/08 11:15:46;;;;;;;;;;;20.60;65.90;;;;;;4963102;28;20149;-65
2022/10/08 11:18:12;;;;;;;5.88;1.20;;;20.60;65.90;;;;;;4960165;28;20362;-65
2022/10/08 11:20:43;;;;;;;6.32;1.48;;;20.50;65.90;;;;;;4976380;28;20058;-65
2022/10/08 11:23:38;;;;;;;6.18;1.50;;;20.50;65.90;;;;;;4975654;28;20504;-65
2022/10/08 11:26:24;;;;;;;6.97;1.50;;;20.50;65.90;;;;;;4978365;28;20058;-65
2022/10/08 11:29:11;;;;;;;6.25;1.02;;;20.60;66.00;;;;;;4983564;28;20058;-65
2022/10/08 11:31:41;;;;;;;10.00;1.38;;;20.60;66.00;;;;;;4993465;28;20121;-65
2022/10/08 11:34:34;;;;;;;4.80;1.20;;;20.60;66.00;;;;;;4993890;28;20046;-65
2022/10/08 11:37:14;;;;;;;6.20;1.25;;;20.60;66.00;;;;;;4978535;28;20105;-65
2022/10/08 11:39:49;;;;;;;3.92;1.05;;;20.60;66.10;;;;;;4976336;28;20046;-65
2022/10/08 11:42:25;;;;;;;7.40;1.50;;;20.60;66.00;;;;;;4993694;28;20050;-65
2022/10/08 11:44:50;;;;;;;4.70;1.45;;;20.60;66.10;;;;;;4993193;28;20136;-65
2022/10/08 11:47:45;;;;;;;4.45;1.17;;;20.60;66.00;;;;;;4976031;28;20451;-65
2022/10/08 11:50:25;;;;;;;6.10;1.45;;;20.60;66.00;;;;;;4976303;28;20188;-65
2022/10/08 11:52:52;;;;;;;3.40;1.15;;;20.60;66.00;;;;;;4992699;28;20054;-65
2022/10/08 11:55:27;;;;;;;5.80;1.20;;;20.60;66.00;;;;;;4975970;28;20052;-65
2022/10/08 11:57:58;;;;;;;3.95;1.15;;;20.60;65.90;;;;;;4976073;28;20046;-65
2022/10/08 12:00:42;;;;;;;2.80;0.80;;;20.60;65.90;;;;;;4976090;28;20193;-65
2022/10/08 12:03:47;;;;;;;4.45;1.00;;;20.60;65.80;;;;;;4975800;28;20515;-65
2022/10/08 12:06:26;;;;;;;5.90;1.20;;;20.60;65.60;;;;;;4970833;28;20058;-65
2022/10/08 12:08:59;;;;;;;4.43;1.27;;;20.60;65.50;;;;;;4976549;28;20064;-65
2022/10/08 12:11:30;;;;;;;4.50;1.15;;;20.60;65.50;;;;;;4993136;28;20121;-65
2022/10/08 12:14:15;;;;;;;4.85;1.00;;;20.60;65.50;;;;;;4992875;28;20121;-65
2022/10/08 12:16:47;;;;;;;4.90;1.13;;;20.60;65.50;;;;;;4975844;28;20057;-65
2022/10/08 12:19:31;;;;;;;4.13;1.25;;;20.60;65.50;;;;;;4974567;28;20043;-65
2022/10/08 12:22:23;;;;;;;4.63;1.10;;;20.60;65.40;;;;;;4993418;28;20093;-65
2022/10/08 12:24:49;;;;;;;5.22;1.20;;;20.60;65.40;;;;;;4985077;28;20054;-65
2022/10/08 12:27:33;;;;;;;4.80;1.08;;;20.60;65.40;;;;;;4992394;28;20044;-66
2022/10/08 12:30:13;;;;;;;7.13;1.10;;;20.50;65.30;;;;;;4976146;28;20042;-66
2022/10/08 12:32:38;;;;;;;4.15;1.00;;;20.50;65.20;;;;;;4961405;28;20042;-66
2022/10/08 12:35:04;;;;;;;7.28;1.40;;;20.60;65.20;;;;;;4996613;28;20053;-66
2022/10/08 12:37:52;;;;;;;3.83;1.08;;;20.60;65.20;;;;;;4996777;28;20054;-66
2022/10/08 12:40:39;;;;;;;3.65;1.10;;;20.60;65.10;;;;;;4996146;28;20056;-66
2022/10/08 12:43:22;;;;;;;5.55;1.05;;;20.60;65.00;;;;;;4979875;28;20117;-66
2022/10/08 12:46:09;;;;;;;4.22;1.38;;;20.60;64.90;;;;;;4997323;28;20513;-66
2022/10/08 12:48:39;;;;;;;2.80;0.93;;;20.60;64.80;;;;;;4996164;28;20058;-66
2022/10/08 12:51:14;;;;;;;5.90;1.10;;;20.60;64.80;;;;;;4979479;28;20410;-66
2022/10/08 12:53:45;;;;;;;5.30;1.00;;;20.70;64.80;;;;;;4980098;28;20516;-66
2022/10/08 12:56:23;;;;;;;4.10;0.90;;;20.70;64.70;;;;;;4978370;28;20050;-66
2022/10/08 12:58:49;;;;;;;4.50;1.17;;;20.70;64.60;;;;;;4980778;28;20145;-66
2022/10/08 13:01:15;;;;;;;5.75;0.90;;;20.70;64.50;;;;;;4962087;28;20836;-66
2022/10/08 13:03:41;;;;;;;4.80;1.10;;;20.70;64.50;;;;;;4979693;28;20100;-66
2022/10/08 13:06:23;;;;;;;5.63;1.05;;;20.70;64.40;;;;;;4996478;28;20042;-66
2022/10/08 13:08:49;;;;;;;3.33;0.93;;;20.80;64.30;;;;;;4978424;28;20034;-65